Time;durP1;ratioP1;P1;durP2;ratioP2;P2;SDS_P1;SDS_P2;PMS_P1;PMS_P2;Temp;Humidity;BMP_temperature;BMP_pressure;BME280_temperature;BME280_humidity;BME280_pressure;Samples;Min_cycle;Max_cycle;Signal;HPM_P1;HPM_P2
2022/03/22 00:00:27;;;;;;;0.10;0.10;;;;;;;;;;5051373;28;20200;-79
2022/03/22 00:02:54;;;;;;;0.20;0.20;;;;;;;;;;5046841;28;20196;-79
2022/03/22 00:05:22;;;;;;;0.10;0.10;;;;;;;;;;5049480;28;20210;-77
2022/03/22 00:07:50;;;;;;;0.20;0.20;;;;;;;;;;5047590;28;20501;-78
2022/03/22 00:10:18;;;;;;;0.10;0.10;;;;;;;;;;5050089;28;20225;-77
2022/03/22 00:12:44;;;;;;;0.10;0.10;;;;;;;;;;5047257;28;20232;-78
2022/03/22 00:15:13;;;;;;;0.10;0.10;;;;;;;;;;5051227;28;20206;-77
2022/03/22 00:17:39;;;;;;;0.57;0.57;;;;;;;;;;5046360;28;20243;-78
2022/03/22 00:20:10;;;;;;;0.10;0.10;;;;;;;;;;5056475;28;20207;-78
2022/03/22 00:22:36;;;;;;;0.10;0.10;;;;;;;;;;5049591;28;20451;-77
2022/03/22 00:25:03;;;;;;;0.10;0.10;;;;;;;;;;5066859;28;20213;-77
2022/03/22 00:27:51;;;;;;;0.10;0.10;;;;;;;;;;5038464;28;20238;-78
2022/03/22 00:30:18;;;;;;;0.10;0.10;;;;;;;;;;5036844;28;20589;-76
2022/03/22 00:32:45;;;;;;;4.53;4.33;;;;;;;;;;5050291;28;20213;-80
2022/03/22 00:35:11;;;;;;;0.50;0.50;;;;;;;;;;5053918;28;20222;-78
2022/03/22 00:37:40;;;;;;;0.10;0.10;;;;;;;;;;5049663;28;20352;-78
2022/03/22 00:40:08;;;;;;;0.20;0.20;;;;;;;;;;5056130;28;20206;-78
2022/03/22 00:42:37;;;;;;;0.20;0.20;;;;;;;;;;5049126;28;20200;-78
2022/03/22 00:45:03;;;;;;;0.20;0.20;;;;;;;;;;5066581;28;20397;-78
2022/03/22 00:47:30;;;;;;;0.73;0.73;;;;;;;;;;5038371;28;20219;-78
2022/03/22 00:49:56;;;;;;;0.33;0.33;;;;;;;;;;5066475;28;20210;-78
2022/03/22 00:52:25;;;;;;;1.67;1.60;;;;;;;;;;5038149;28;20310;-77
2022/03/22 00:54:52;;;;;;;0.27;0.27;;;;;;;;;;5066513;28;20224;-78
2022/03/22 00:57:19;;;;;;;0.30;0.30;;;;;;;;;;5038078;28;20654;-77
2022/03/22 01:00:05;;;;;;;0.10;0.10;;;;;;;;;;5066022;28;20208;-77
2022/03/22 01:02:35;;;;;;;0.20;0.20;;;;;;;;;;5038194;28;20446;-78
2022/03/22 01:05:03;;;;;;;0.10;0.10;;;;;;;;;;5066533;28;20195;-78
2022/03/22 01:07:30;;;;;;;0.10;0.10;;;;;;;;;;5037814;28;20243;-78
2022/03/22 01:09:56;;;;;;;0.20;0.20;;;;;;;;;;5066168;28;20268;-80
2022/03/22 01:12:23;;;;;;;0.10;0.10;;;;;;;;;;5037746;28;20248;-80
2022/03/22 01:14:52;;;;;;;0.20;0.20;;;;;;;;;;5066261;28;20210;-77
2022/03/22 01:17:18;;;;;;;0.20;0.20;;;;;;;;;;5037749;28;20570;-78
2022/03/22 01:19:46;;;;;;;1.90;1.90;;;;;;;;;;5065862;28;20450;-78
2022/03/22 01:22:12;;;;;;;0.20;0.20;;;;;;;;;;5037994;28;20243;-77
2022/03/22 01:24:39;;;;;;;0.17;0.17;;;;;;;;;;5065973;28;20263;-78
2022/03/22 01:27:05;;;;;;;0.17;0.17;;;;;;;;;;5037310;28;20559;-78
2022/03/22 01:29:31;;;;;;;0.37;0.37;;;;;;;;;;5066013;28;20391;-78
2022/03/22 01:31:59;;;;;;;0.20;0.20;;;;;;;;;;5038264;28;20240;-77
2022/03/22 01:34:26;;;;;;;0.13;0.13;;;;;;;;;;5063847;28;20253;-78
2022/03/22 01:36:52;;;;;;;0.17;0.17;;;;;;;;;;5039187;28;20242;-77
2022/03/22 01:39:20;;;;;;;1.27;1.27;;;;;;;;;;5063664;28;20212;-77
2022/03/22 01:41:46;;;;;;;0.30;0.30;;;;;;;;;;5040052;28;20244;-77
2022/03/22 01:44:13;;;;;;;0.20;0.20;;;;;;;;;;5062588;28;20207;-77
2022/03/22 01:46:39;;;;;;;0.20;0.20;;;;;;;;;;5039756;28;20243;-78
2022/03/22 01:49:08;;;;;;;0.40;0.40;;;;;;;;;;5061613;28;20517;-78
2022/03/22 01:51:34;;;;;;;0.20;0.20;;;;;;;;;;5041802;28;20266;-78
2022/03/22 01:54:01;;;;;;;0.20;0.20;;;;;;;;;;5060331;28;20207;-78
2022/03/22 01:56:27;;;;;;;0.20;0.20;;;;;;;;;;5042845;28;20417;-78
2022/03/22 01:58:55;;;;;;;0.63;0.63;;;;;;;;;;5059284;28;20437;-77
2022/03/22 02:06:47;;;;;;;0.30;0.30;;;;;;;;;;5039920;28;20246;-79
2022/03/22 02:09:13;;;;;;;0.87;0.87;;;;;;;;;;5062070;28;20439;-78
2022/03/22 02:11:40;;;;;;;0.67;0.67;;;;;;;;;;5040525;28;20324;-78
2022/03/22 02:14:06;;;;;;;0.33;0.33;;;;;;;;;;5060962;28;20211;-79
2022/03/22 02:16:32;;;;;;;0.20;0.20;;;;;;;;;;5041837;28;20348;-78
2022/03/22 02:18:59;;;;;;;0.20;0.20;;;;;;;;;;5059492;28;20206;-78
2022/03/22 02:21:31;;;;;;;0.10;0.10;;;;;;;;;;5042865;28;20289;-77
2022/03/22 02:23:58;;;;;;;0.20;0.20;;;;;;;;;;5059372;28;20237;-79
2022/03/22 02:26:26;;;;;;;0.20;0.20;;;;;;;;;;5042631;28;20243;-77
2022/03/22 02:28:53;;;;;;;0.10;0.10;;;;;;;;;;5058853;28;20203;-77
2022/03/22 02:31:19;;;;;;;0.20;0.20;;;;;;;;;;5043171;28;20380;-78
2022/03/22 02:33:46;;;;;;;0.10;0.10;;;;;;;;;;5057313;28;20211;-77
2022/03/22 02:36:14;;;;;;;0.43;0.43;;;;;;;;;;5044144;28;20247;-77
2022/03/22 02:38:41;;;;;;;0.10;0.10;;;;;;;;;;5056143;28;20268;-78
2022/03/22 02:41:09;;;;;;;0.20;0.20;;;;;;;;;;5044501;28;20273;-77
2022/03/22 02:43:38;;;;;;;0.10;0.10;;;;;;;;;;5055383;28;20202;-77
2022/03/22 02:46:04;;;;;;;0.20;0.20;;;;;;;;;;5045112;28;20516;-79
2022/03/22 02:48:31;;;;;;;0.10;0.10;;;;;;;;;;5055022;28;20229;-78
2022/03/22 02:50:57;;;;;;;0.10;0.10;;;;;;;;;;5046212;28;20242;-79
2022/03/22 02:53:23;;;;;;;0.10;0.10;;;;;;;;;;5054377;28;20544;-78
2022/03/22 02:55:51;;;;;;;1.87;1.80;;;;;;;;;;5047584;28;20384;-78
2022/03/22 02:58:18;;;;;;;0.10;0.10;;;;;;;;;;5053072;28;20395;-78
2022/03/22 03:00:45;;;;;;;0.20;0.20;;;;;;;;;;5049280;28;20431;-77
2022/03/22 03:03:14;;;;;;;0.10;0.10;;;;;;;;;;5051064;28;20266;-79
2022/03/22 03:05:40;;;;;;;0.10;0.10;;;;;;;;;;5048283;28;20323;-77
2022/03/22 03:08:07;;;;;;;0.20;0.20;;;;;;;;;;5051314;28;20284;-77
2022/03/22 03:10:33;;;;;;;0.20;0.20;;;;;;;;;;5049442;28;20308;-78
2022/03/22 03:13:00;;;;;;;10.83;10.07;;;;;;;;;;5050226;28;20206;-78
2022/03/22 03:15:27;;;;;;;0.10;0.10;;;;;;;;;;5050131;28;20250;-78
2022/03/22 03:17:54;;;;;;;0.30;0.30;;;;;;;;;;5049245;28;20221;-78
2022/03/22 03:20:20;;;;;;;0.20;0.20;;;;;;;;;;5051286;28;20253;-78
2022/03/22 03:22:47;;;;;;;2.67;2.57;;;;;;;;;;5048148;28;20201;-78
2022/03/22 03:25:13;;;;;;;0.10;0.10;;;;;;;;;;5052343;28;20211;-79
2022/03/22 03:27:40;;;;;;;0.10;0.10;;;;;;;;;;5046559;28;20230;-78
2022/03/22 03:30:07;;;;;;;0.10;0.10;;;;;;;;;;5054508;28;20240;-79
2022/03/22 03:32:35;;;;;;;0.10;0.10;;;;;;;;;;5046111;28;20536;-78
2022/03/22 03:35:02;;;;;;;0.30;0.30;;;;;;;;;;5063514;28;20229;-78
2022/03/22 03:37:29;;;;;;;0.10;0.10;;;;;;;;;;5034883;28;20416;-79
2022/03/22 03:39:56;;;;;;;0.10;0.10;;;;;;;;;;5063111;28;20205;-78
2022/03/22 03:42:22;;;;;;;5.57;5.23;;;;;;;;;;5035161;28;20246;-77
2022/03/22 03:47:34;;;;;;;0.20;0.20;;;;;;;;;;5035135;28;20242;-77
2022/03/22 03:50:05;;;;;;;15.77;12.73;;;;;;;;;;5062955;28;20424;-79
2022/03/22 03:52:32;;;;;;;0.80;0.80;;;;;;;;;;5035547;28;20290;-79
2022/03/22 03:54:59;;;;;;;0.10;0.10;;;;;;;;;;5063144;28;20207;-78
2022/03/22 03:57:26;;;;;;;0.10;0.10;;;;;;;;;;5034564;28;20250;-79
2022/03/22 03:59:53;;;;;;;0.20;0.20;;;;;;;;;;5063455;28;20206;-79
2022/03/22 04:02:19;;;;;;;0.53;0.53;;;;;;;;;;5034912;28;20309;-78
2022/03/22 04:04:51;;;;;;;0.10;0.10;;;;;;;;;;5063118;28;20205;-79
2022/03/22 04:07:21;;;;;;;0.10;0.10;;;;;;;;;;5034981;28;20309;-77
2022/03/22 04:09:48;;;;;;;0.20;0.20;;;;;;;;;;5063429;28;20210;-78
2022/03/22 04:12:14;;;;;;;0.17;0.17;;;;;;;;;;5034960;28;20246;-78
2022/03/22 04:14:40;;;;;;;0.20;0.20;;;;;;;;;;5062997;28;20203;-78
2022/03/22 04:17:08;;;;;;;0.13;0.13;;;;;;;;;;5034782;28;20252;-79
2022/03/22 04:19:35;;;;;;;0.50;0.50;;;;;;;;;;5063103;28;20205;-78
2022/03/22 04:22:02;;;;;;;0.10;0.10;;;;;;;;;;5018951;28;20429;-79
2022/03/22 04:24:30;;;;;;;0.10;0.10;;;;;;;;;;5062244;28;20205;-79
2022/03/22 04:32:41;;;;;;;0.37;0.37;;;;;;;;;;5035685;28;20305;-80
2022/03/22 04:32:44;;;;;;;0.20;0.20;;;;;;;;;;5023697;28;20249;-78
2022/03/22 04:35:11;;;;;;;0.10;0.10;;;;;;;;;;5051319;28;20222;-78
2022/03/22 04:37:38;;;;;;;0.20;0.20;;;;;;;;;;5045847;28;20246;-78
2022/03/22 04:40:07;;;;;;;0.63;0.63;;;;;;;;;;5060644;28;20244;-78
2022/03/22 04:42:33;;;;;;;0.10;0.10;;;;;;;;;;5044932;28;20222;-79
2022/03/22 04:44:59;;;;;;;0.20;0.20;;;;;;;;;;5062830;28;20247;-80
2022/03/22 04:47:26;;;;;;;0.20;0.20;;;;;;;;;;5034397;28;20239;-79
2022/03/22 04:49:52;;;;;;;0.37;0.37;;;;;;;;;;5062409;28;20204;-79
2022/03/22 04:57:48;;;;;;;0.13;0.13;;;;;;;;;;5062646;28;20580;-77
2022/03/22 05:00:14;;;;;;;0.20;0.20;;;;;;;;;;5050471;28;20210;-78
2022/03/22 05:02:41;;;;;;;0.13;0.13;;;;;;;;;;5046344;28;20380;-78
2022/03/22 05:05:07;;;;;;;0.10;0.10;;;;;;;;;;5061257;28;20250;-78
2022/03/22 05:07:34;;;;;;;0.20;0.20;;;;;;;;;;5045078;28;20530;-78
2022/03/22 05:10:00;;;;;;;0.20;0.20;;;;;;;;;;5065694;28;20205;-79
2022/03/22 05:12:26;;;;;;;10.30;4.23;;;;;;;;;;5038028;28;20251;-79
2022/03/22 05:14:54;;;;;;;0.20;0.20;;;;;;;;;;5066162;28;20227;-78
2022/03/22 05:17:23;;;;;;;0.20;0.20;;;;;;;;;;5037615;28;20240;-78
2022/03/22 05:19:50;;;;;;;0.10;0.10;;;;;;;;;;5065716;28;20204;-79
2022/03/22 05:22:16;;;;;;;0.20;0.20;;;;;;;;;;5037673;28;20292;-79
2022/03/22 05:24:43;;;;;;;0.20;0.20;;;;;;;;;;5065532;28;20218;-79
2022/03/22 05:27:09;;;;;;;0.20;0.20;;;;;;;;;;5036474;28;20251;-78
2022/03/22 05:29:36;;;;;;;3.60;3.50;;;;;;;;;;5065763;28;20246;-79
2022/03/22 05:32:04;;;;;;;1.90;1.83;;;;;;;;;;5037889;28;20242;-79
2022/03/22 05:34:31;;;;;;;0.33;0.33;;;;;;;;;;5065291;28;20225;-79
2022/03/22 05:36:57;;;;;;;0.20;0.20;;;;;;;;;;5038578;28;20248;-80
2022/03/22 05:39:23;;;;;;;0.20;0.20;;;;;;;;;;5064566;28;20196;-79
2022/03/22 05:41:51;;;;;;;0.20;0.20;;;;;;;;;;5039538;28;20301;-80
2022/03/22 05:44:17;;;;;;;0.20;0.20;;;;;;;;;;5063311;28;20198;-78
2022/03/22 05:46:44;;;;;;;0.20;0.20;;;;;;;;;;5040081;28;20585;-79
2022/03/22 05:49:13;;;;;;;0.10;0.10;;;;;;;;;;5062233;28;20228;-79
2022/03/22 05:51:40;;;;;;;0.20;0.20;;;;;;;;;;5041099;28;20256;-78
2022/03/22 05:54:09;;;;;;;0.20;0.20;;;;;;;;;;5061680;28;20533;-80
2022/03/22 05:56:35;;;;;;;0.20;0.20;;;;;;;;;;5041565;28;20260;-79
2022/03/22 05:59:02;;;;;;;0.20;0.20;;;;;;;;;;5060649;28;20417;-78
2022/03/22 06:01:28;;;;;;;0.20;0.20;;;;;;;;;;5043222;28;20252;-78
2022/03/22 06:03:55;;;;;;;0.23;0.23;;;;;;;;;;5059077;28;20449;-78
2022/03/22 06:06:23;;;;;;;0.20;0.20;;;;;;;;;;5043013;28;20258;-78
2022/03/22 06:08:51;;;;;;;0.20;0.20;;;;;;;;;;5058926;28;20232;-79
2022/03/22 06:11:18;;;;;;;0.20;0.20;;;;;;;;;;5043916;28;20245;-79
2022/03/22 06:13:44;;;;;;;1.87;1.80;;;;;;;;;;5058650;28;20205;-78
2022/03/22 06:16:11;;;;;;;0.20;0.20;;;;;;;;;;5045224;28;20250;-79
2022/03/22 06:18:37;;;;;;;0.10;0.10;;;;;;;;;;5056240;28;20202;-79
2022/03/22 06:21:03;;;;;;;6.20;5.90;;;;;;;;;;5046299;28;20241;-79
2022/03/22 06:23:31;;;;;;;1.23;1.23;;;;;;;;;;5038257;28;20253;-78
2022/03/22 06:25:58;;;;;;;4.23;1.67;;;;;;;;;;5030615;28;20307;-79
2022/03/22 06:28:24;;;;;;;0.23;0.23;;;;;;;;;;5053998;28;20224;-78
2022/03/22 06:30:51;;;;;;;9.07;8.40;;;;;;;;;;5047581;28;20241;-79
2022/03/22 06:33:18;;;;;;;0.20;0.20;;;;;;;;;;5053811;28;20227;-78
2022/03/22 06:35:45;;;;;;;6.03;1.93;;;;;;;;;;5047873;28;20291;-78
2022/03/22 06:38:12;;;;;;;0.20;0.20;;;;;;;;;;5052200;28;20210;-79
2022/03/22 06:40:40;;;;;;;0.20;0.20;;;;;;;;;;5048841;28;20268;-78
2022/03/22 06:43:07;;;;;;;1.43;1.43;;;;;;;;;;5051932;28;20212;-78
2022/03/22 06:45:33;;;;;;;0.20;0.20;;;;;;;;;;5049575;28;20295;-79
2022/03/22 06:48:00;;;;;;;0.80;0.80;;;;;;;;;;5050770;28;20296;-78
2022/03/22 06:50:27;;;;;;;0.20;0.20;;;;;;;;;;5050743;28;20459;-79
2022/03/22 06:52:53;;;;;;;0.20;0.20;;;;;;;;;;5049718;28;20201;-79
2022/03/22 06:55:22;;;;;;;1.20;1.20;;;;;;;;;;5051100;28;20197;-78
2022/03/22 06:57:51;;;;;;;0.20;0.20;;;;;;;;;;5048812;28;20243;-79
2022/03/22 07:00:18;;;;;;;0.83;0.83;;;;;;;;;;5052014;28;20216;-78
2022/03/22 07:02:45;;;;;;;0.20;0.20;;;;;;;;;;5048076;28;20255;-79
2022/03/22 07:05:12;;;;;;;0.20;0.20;;;;;;;;;;5052661;28;20205;-78
2022/03/22 07:07:39;;;;;;;1.37;1.37;;;;;;;;;;5047240;28;20287;-80
2022/03/22 07:10:06;;;;;;;0.83;0.83;;;;;;;;;;5063882;28;20214;-79
2022/03/22 07:12:33;;;;;;;0.20;0.20;;;;;;;;;;5034811;28;20245;-80
2022/03/22 07:15:05;;;;;;;0.10;0.10;;;;;;;;;;5063048;28;20211;-79
2022/03/22 07:17:31;;;;;;;0.47;0.47;;;;;;;;;;5035060;28;20305;-68
2022/03/22 07:19:57;;;;;;;9.33;8.27;;;;;;;;;;5063603;28;20244;-68
2022/03/22 07:22:25;;;;;;;0.27;0.27;;;;;;;;;;5035270;28;20316;-69
2022/03/22 07:24:53;;;;;;;0.10;0.10;;;;;;;;;;5063444;28;20387;-69
2022/03/22 07:27:19;;;;;;;0.40;0.40;;;;;;;;;;5035254;28;20270;-70
2022/03/22 07:29:45;;;;;;;0.97;0.97;;;;;;;;;;5063163;28;20456;-67
2022/03/22 07:32:13;;;;;;;0.30;0.30;;;;;;;;;;5035173;28;20240;-68
2022/03/22 07:34:39;;;;;;;0.10;0.10;;;;;;;;;;5063088;28;20239;-68
2022/03/22 07:37:06;;;;;;;0.20;0.20;;;;;;;;;;5035180;28;20236;-68
2022/03/22 07:39:34;;;;;;;1.13;1.13;;;;;;;;;;5063198;28;20392;-68
2022/03/22 07:42:01;;;;;;;1.07;1.07;;;;;;;;;;5037139;28;20243;-69
2022/03/22 07:44:30;;;;;;;0.20;0.20;;;;;;;;;;5061201;28;20394;-68
2022/03/22 07:46:56;;;;;;;0.10;0.10;;;;;;;;;;5036752;28;20248;-69
2022/03/22 07:54:52;;;;;;;0.10;0.10;;;;;;;;;;5062151;28;20245;-68
2022/03/22 07:57:19;;;;;;;1.33;1.33;;;;;;;;;;5034444;28;20240;-68
2022/03/22 07:59:45;;;;;;;0.10;0.10;;;;;;;;;;5062566;28;20200;-67
2022/03/22 08:02:12;;;;;;;0.20;0.20;;;;;;;;;;5034544;28;20335;-68
2022/03/22 08:04:39;;;;;;;1.90;1.90;;;;;;;;;;5063396;28;20262;-68
2022/03/22 08:07:07;;;;;;;0.10;0.10;;;;;;;;;;5036401;28;20248;-67
2022/03/22 08:09:33;;;;;;;0.20;0.20;;;;;;;;;;5061976;28;20250;-68
2022/03/22 08:11:59;;;;;;;0.30;0.30;;;;;;;;;;5036334;28;20250;-68
2022/03/22 08:14:26;;;;;;;0.20;0.20;;;;;;;;;;5061925;28;20448;-67
2022/03/22 08:16:52;;;;;;;1.37;1.23;;;;;;;;;;5037010;28;20257;-68
2022/03/22 08:19:18;;;;;;;0.20;0.20;;;;;;;;;;5060266;28;20207;-67
2022/03/22 08:21:46;;;;;;;0.37;0.37;;;;;;;;;;5037160;28;20261;-67
2022/03/22 08:24:13;;;;;;;0.10;0.10;;;;;;;;;;5059463;28;20530;-68
2022/03/22 08:26:39;;;;;;;0.70;0.70;;;;;;;;;;5037662;28;20248;-67
2022/03/22 08:29:06;;;;;;;0.10;0.10;;;;;;;;;;5058461;28;20219;-68
2022/03/22 08:31:32;;;;;;;0.10;0.10;;;;;;;;;;5039069;28;20240;-67
2022/03/22 08:33:59;;;;;;;0.87;0.87;;;;;;;;;;5057538;28;20271;-67
2022/03/22 08:36:25;;;;;;;0.70;0.70;;;;;;;;;;5039917;28;20304;-67
2022/03/22 08:38:53;;;;;;;1.27;1.17;;;;;;;;;;5056917;28;20208;-67
2022/03/22 08:41:19;;;;;;;0.10;0.10;;;;;;;;;;5042834;28;20294;-68
2022/03/22 08:43:46;;;;;;;0.10;0.10;;;;;;;;;;5057792;28;20205;-68
2022/03/22 08:46:14;;;;;;;0.60;0.60;;;;;;;;;;5047455;28;20263;-67
2022/03/22 08:48:40;;;;;;;0.10;0.10;;;;;;;;;;5057633;28;20230;-69
2022/03/22 08:51:06;;;;;;;0.10;0.10;;;;;;;;;;5046750;28;20310;-68
2022/03/22 08:53:33;;;;;;;0.10;0.10;;;;;;;;;;5058000;28;20207;-68
2022/03/22 08:56:03;;;;;;;0.00;0.00;;;;;;;;;;5047827;28;20403;-68
2022/03/22 08:58:30;;;;;;;0.10;0.10;;;;;;;;;;5057687;28;20267;-67
2022/03/22 09:00:56;;;;;;;0.97;0.97;;;;;;;;;;5049780;28;20318;-66
2022/03/22 09:03:24;;;;;;;0.10;0.10;;;;;;;;;;5054524;28;20215;-67
2022/03/22 09:06:08;;;;;;;0.10;0.10;;;;;;;;;;5050331;28;20247;-67
2022/03/22 09:08:34;;;;;;;0.30;0.20;;;;;;;;;;5056393;28;20231;-68
2022/03/22 09:11:02;;;;;;;0.10;0.10;;;;;;;;;;5048514;28;20568;-68
2022/03/22 09:13:29;;;;;;;0.50;0.50;;;;;;;;;;5055349;28;20205;-68
2022/03/22 09:15:56;;;;;;;0.97;0.93;;;;;;;;;;5048264;28;20242;-67
2022/03/22 09:18:25;;;;;;;0.53;0.53;;;;;;;;;;5056031;28;20211;-67
2022/03/22 09:20:51;;;;;;;0.93;0.37;;;;;;;;;;5049347;28;20271;-67
2022/03/22 09:23:18;;;;;;;0.43;0.43;;;;;;;;;;5054478;28;20213;-67
2022/03/22 09:25:45;;;;;;;0.03;0.03;;;;;;;;;;5049021;28;20310;-69
2022/03/22 09:28:12;;;;;;;0.10;0.10;;;;;;;;;;5052701;28;20214;-67
2022/03/22 09:30:39;;;;;;;1.10;1.10;;;;;;;;;;5049574;28;20563;-70
2022/03/22 09:33:07;;;;;;;0.20;0.20;;;;;;;;;;5052500;28;20204;-68
2022/03/22 09:35:34;;;;;;;4.53;1.23;;;;;;;;;;5049569;28;20318;-68
2022/03/22 09:38:01;;;;;;;0.83;0.83;;;;;;;;;;5051499;28;20292;-67
2022/03/22 09:40:28;;;;;;;0.40;0.40;;;;;;;;;;5052785;28;20223;-68
2022/03/22 09:42:55;;;;;;;0.10;0.10;;;;;;;;;;5049543;28;20276;-69
2022/03/22 09:45:25;;;;;;;0.20;0.20;;;;;;;;;;5052003;28;20213;-69
2022/03/22 09:47:52;;;;;;;0.10;0.10;;;;;;;;;;5050121;28;20289;-66
2022/03/22 09:50:19;;;;;;;0.03;0.03;;;;;;;;;;5052416;28;20360;-68
2022/03/22 09:52:46;;;;;;;0.10;0.10;;;;;;;;;;5049421;28;20209;-67
2022/03/22 09:55:15;;;;;;;0.15;0.15;;;;;;;;;;5052001;28;20209;-67
2022/03/22 09:57:41;;;;;;;0.00;0.00;;;;;;;;;;5048673;28;20205;-68
2022/03/22 10:00:09;;;;;;;22.70;20.40;;;;;;;;;;5053708;28;20201;-68
2022/03/22 10:02:37;;;;;;;0.25;0.25;;;;;;;;;;5047690;28;20375;-68
2022/03/22 10:05:04;;;;;;;0.10;0.10;;;;;;;;;;5064277;28;20213;-67
2022/03/22 10:07:31;;;;;;;0.10;0.10;;;;;;;;;;5036164;28;20460;-67
2022/03/22 10:09:58;;;;;;;0.30;0.30;;;;;;;;;;5064021;28;20403;-69
2022/03/22 10:12:28;;;;;;;0.68;0.68;;;;;;;;;;5036307;28;20241;-69
2022/03/22 10:14:54;;;;;;;0.10;0.10;;;;;;;;;;5064091;28;20205;-68
2022/03/22 10:17:20;;;;;;;0.50;0.50;;;;;;;;;;5036063;28;20254;-68
2022/03/22 10:19:49;;;;;;;0.30;0.30;;;;;;;;;;5064273;28;20205;-68
2022/03/22 10:22:17;;;;;;;0.10;0.10;;;;;;;;;;5035824;28;20304;-68
2022/03/22 10:24:45;;;;;;;0.00;0.00;;;;;;;;;;5064137;28;20198;-67
2022/03/22 10:27:24;;;;;;;0.10;0.10;;;;;;;;;;5035689;28;20251;-68
2022/03/22 10:29:51;;;;;;;3.72;2.65;;;;;;;;;;5064245;28;20273;-70
2022/03/22 10:32:19;;;;;;;0.08;0.08;;;;;;;;;;5035697;28;20557;-67
2022/03/22 10:34:45;;;;;;;1.45;1.45;;;;;;;;;;5063772;28;20265;-69
2022/03/22 10:37:13;;;;;;;0.10;0.10;;;;;;;;;;5035299;28;20246;-68
2022/03/22 10:39:43;;;;;;;0.05;0.05;;;;;;;;;;5063437;28;20229;-69
2022/03/22 10:42:10;;;;;;;1.70;1.70;;;;;;;;;;5035421;28;20459;-69
2022/03/22 10:44:36;;;;;;;0.00;0.00;;;;;;;;;;5063337;28;20205;-70
2022/03/22 10:47:03;;;;;;;0.50;0.50;;;;;;;;;;5035765;28;20306;-69
2022/03/22 10:49:30;;;;;;;0.00;0.00;;;;;;;;;;5063434;28;20414;-68
2022/03/22 10:51:57;;;;;;;0.00;0.00;;;;;;;;;;5036642;28;20261;-69
2022/03/22 10:54:24;;;;;;;0.00;0.00;;;;;;;;;;5062139;28;20225;-68
2022/03/22 10:56:51;;;;;;;0.00;0.00;;;;;;;;;;5037162;28;20242;-69
2022/03/22 10:59:18;;;;;;;0.00;0.00;;;;;;;;;;5061278;28;20246;-69
2022/03/22 11:01:46;;;;;;;0.00;0.00;;;;;;;;;;5038143;28;20471;-68
2022/03/22 11:04:15;;;;;;;0.20;0.20;;;;;;;;;;5060491;28;20506;-68
2022/03/22 11:06:41;;;;;;;0.05;0.05;;;;;;;;;;5038311;28;20244;-70
2022/03/22 11:09:08;;;;;;;0.10;0.10;;;;;;;;;;5059834;28;20403;-68
2022/03/22 11:11:36;;;;;;;0.00;0.00;;;;;;;;;;5041533;28;20277;-68
2022/03/22 11:14:03;;;;;;;0.08;0.08;;;;;;;;;;5058304;28;20394;-68
2022/03/22 11:16:31;;;;;;;0.00;0.00;;;;;;;;;;5040983;28;20499;-69
2022/03/22 11:18:59;;;;;;;0.00;0.00;;;;;;;;;;5059078;28;20204;-68
2022/03/22 11:21:26;;;;;;;0.00;0.00;;;;;;;;;;5041288;28;20243;-68
2022/03/22 11:23:52;;;;;;;0.00;0.00;;;;;;;;;;5058062;28;20224;-68
2022/03/22 11:26:19;;;;;;;0.00;0.00;;;;;;;;;;5042251;28;20247;-68
2022/03/22 11:28:48;;;;;;;0.05;0.05;;;;;;;;;;5057018;28;20286;-69
2022/03/22 11:31:16;;;;;;;0.08;0.08;;;;;;;;;;5043005;28;20239;-68
2022/03/22 11:36:36;;;;;;;0.17;0.17;;;;;;;;;;5040307;28;20298;-68
2022/03/22 11:39:03;;;;;;;0.00;0.00;;;;;;;;;;5058689;28;20270;-68
2022/03/22 11:44:17;;;;;;;0.00;0.00;;;;;;;;;;5060826;28;20192;-68
2022/03/22 11:46:43;;;;;;;0.00;0.00;;;;;;;;;;5038019;28;20251;-69
2022/03/22 11:49:17;;;;;;;0.00;0.00;;;;;;;;;;5059983;28;20212;-67
2022/03/22 11:51:54;;;;;;;0.00;0.00;;;;;;;;;;5037963;28;20241;-67
2022/03/22 11:54:21;;;;;;;0.00;0.00;;;;;;;;;;5061373;28;20433;-68
2022/03/22 11:56:49;;;;;;;0.17;0.17;;;;;;;;;;5037477;28;20247;-67
2022/03/22 11:59:17;;;;;;;0.10;0.10;;;;;;;;;;5060504;28;20393;-66
2022/03/22 12:01:54;;;;;;;2.72;2.63;;;;;;;;;;5038681;28;20242;-67
2022/03/22 12:04:20;;;;;;;0.10;0.10;;;;;;;;;;5060832;28;20245;-69
2022/03/22 12:06:47;;;;;;;0.00;0.00;;;;;;;;;;5037962;28;20292;-67
2022/03/22 12:09:13;;;;;;;0.20;0.20;;;;;;;;;;5059801;28;20218;-68
2022/03/22 12:11:48;;;;;;;0.00;0.00;;;;;;;;;;5038423;28;20247;-67
2022/03/22 12:14:26;;;;;;;0.10;0.10;;;;;;;;;;5060540;28;20382;-67
2022/03/22 12:16:52;;;;;;;0.00;0.00;;;;;;;;;;5037294;28;20438;-68
2022/03/22 12:19:24;;;;;;;0.32;0.32;;;;;;;;;;5065446;28;20276;-67
2022/03/22 12:21:52;;;;;;;0.10;0.10;;;;;;;;;;5040970;28;20241;-67
2022/03/22 12:24:18;;;;;;;0.00;0.00;;;;;;;;;;5064870;28;20214;-67
2022/03/22 12:26:45;;;;;;;0.00;0.00;;;;;;;;;;5041587;28;20429;-68
2022/03/22 12:29:11;;;;;;;0.00;0.00;;;;;;;;;;5063679;28;20206;-68
2022/03/22 12:31:46;;;;;;;0.00;0.00;;;;;;;;;;5042612;28;20241;-68
2022/03/22 12:34:13;;;;;;;0.10;0.10;;;;;;;;;;5063442;28;20261;-68
2022/03/22 12:36:39;;;;;;;0.03;0.03;;;;;;;;;;5041939;28;20246;-68
2022/03/22 12:39:06;;;;;;;0.00;0.00;;;;;;;;;;5062893;28;20222;-68
2022/03/22 12:41:32;;;;;;;0.00;0.00;;;;;;;;;;5043248;28;20241;-67
2022/03/22 12:43:58;;;;;;;0.00;0.00;;;;;;;;;;5061673;28;20205;-68
2022/03/22 12:46:25;;;;;;;0.00;0.00;;;;;;;;;;5044266;28;20326;-68
2022/03/22 12:48:54;;;;;;;0.10;0.10;;;;;;;;;;5060556;28;20216;-68
2022/03/22 12:51:21;;;;;;;0.15;0.15;;;;;;;;;;5044524;28;20246;-69
2022/03/22 12:53:47;;;;;;;0.10;0.10;;;;;;;;;;5060267;28;20206;-69
2022/03/22 12:56:14;;;;;;;0.03;0.03;;;;;;;;;;5045725;28;20245;-67
2022/03/22 12:58:40;;;;;;;1.15;0.85;;;;;;;;;;5058668;28;20244;-68
2022/03/22 13:01:06;;;;;;;0.00;0.00;;;;;;;;;;5046573;28;20563;-68
2022/03/22 13:03:33;;;;;;;0.00;0.00;;;;;;;;;;5057937;28;20205;-69
2022/03/22 13:06:00;;;;;;;1.17;1.17;;;;;;;;;;5047692;28;20249;-69
2022/03/22 13:11:26;;;;;;;0.00;0.00;;;;;;;;;;5056794;28;20416;-68
2022/03/22 13:11:29;;;;;;;0.00;0.00;;;;;;;;;;5046019;28;20258;-67
2022/03/22 13:16:40;;;;;;;0.32;0.32;;;;;;;;;;5043052;28;20584;-67
2022/03/22 13:19:07;;;;;;;0.00;0.00;;;;;;;;;;5060648;28;20221;-68
2022/03/22 13:21:36;;;;;;;0.00;0.00;;;;;;;;;;5042452;28;20250;-67
2022/03/22 13:24:04;;;;;;;0.00;0.00;;;;;;;;;;5061751;28;20205;-67
2022/03/22 13:26:32;;;;;;;0.00;0.00;;;;;;;;;;5042871;28;20318;-68
2022/03/22 13:28:58;;;;;;;0.00;0.00;;;;;;;;;;5060679;28;20205;-68
2022/03/22 13:31:25;;;;;;;0.10;0.10;;;;;;;;;;5045017;28;20250;-68
2022/03/22 13:33:55;;;;;;;0.10;0.10;;;;;;;;;;5058021;28;20208;-67
2022/03/22 13:36:22;;;;;;;0.10;0.10;;;;;;;;;;5043647;28;20311;-69
2022/03/22 13:38:51;;;;;;;0.00;0.00;;;;;;;;;;5059205;28;20215;-68
2022/03/22 13:41:24;;;;;;;0.10;0.10;;;;;;;;;;5044147;28;20248;-68
2022/03/22 13:43:50;;;;;;;0.00;0.00;;;;;;;;;;5059301;28;20273;-67
2022/03/22 13:46:16;;;;;;;0.10;0.10;;;;;;;;;;5044329;28;20251;-68
2022/03/22 13:48:44;;;;;;;0.10;0.10;;;;;;;;;;5058116;28;20215;-67
2022/03/22 13:51:10;;;;;;;0.00;0.00;;;;;;;;;;5044859;28;20250;-67
2022/03/22 13:53:36;;;;;;;0.05;0.05;;;;;;;;;;5057076;28;20205;-68
2022/03/22 13:56:07;;;;;;;1.15;1.13;;;;;;;;;;5047518;28;20307;-68
2022/03/22 13:58:36;;;;;;;0.00;0.00;;;;;;;;;;5055672;28;20194;-68
2022/03/22 14:01:03;;;;;;;2.47;2.38;;;;;;;;;;5046060;28;20422;-68
2022/03/22 14:03:29;;;;;;;0.05;0.05;;;;;;;;;;5056354;28;20205;-68
2022/03/22 14:05:57;;;;;;;0.10;0.10;;;;;;;;;;5046909;28;20254;-67
2022/03/22 14:08:23;;;;;;;0.08;0.08;;;;;;;;;;5055082;28;20217;-68
2022/03/22 14:10:51;;;;;;;0.00;0.00;;;;;;;;;;5047435;28;20247;-68
2022/03/22 14:13:20;;;;;;;0.38;0.38;;;;;;;;;;5054102;28;20264;-68
2022/03/22 14:15:46;;;;;;;0.22;0.22;;;;;;;;;;5048450;28;20307;-68
2022/03/22 14:18:13;;;;;;;0.00;0.00;;;;;;;;;;5053585;28;20214;-68
2022/03/22 14:20:39;;;;;;;0.10;0.10;;;;;;;;;;5049299;28;20244;-68
2022/03/22 14:23:06;;;;;;;1.20;1.20;;;;;;;;;;5052570;28;20261;-68
2022/03/22 14:25:34;;;;;;;0.10;0.10;;;;;;;;;;5050615;28;20238;-68
2022/03/22 14:28:00;;;;;;;0.10;0.10;;;;;;;;;;5051068;28;20205;-70
2022/03/22 14:30:30;;;;;;;0.00;0.00;;;;;;;;;;5050765;28;20248;-69
2022/03/22 14:32:57;;;;;;;0.00;0.00;;;;;;;;;;5050435;28;20206;-65
2022/03/22 14:38:10;;;;;;;0.00;0.00;;;;;;;;;;5052082;28;20206;-63
2022/03/22 14:40:37;;;;;;;0.10;0.10;;;;;;;;;;5049514;28;20246;-64
2022/03/22 14:43:04;;;;;;;0.10;0.10;;;;;;;;;;5050444;28;20491;-64
2022/03/22 14:45:32;;;;;;;0.10;0.10;;;;;;;;;;5050348;28;20393;-64
2022/03/22 14:47:58;;;;;;;0.00;0.00;;;;;;;;;;5050492;28;20213;-64
2022/03/22 14:50:25;;;;;;;0.08;0.08;;;;;;;;;;5051257;28;20224;-64
2022/03/22 14:55:36;;;;;;;0.00;0.00;;;;;;;;;;5048799;28;20272;-64
2022/03/22 15:00:49;;;;;;;0.00;0.00;;;;;;;;;;5047429;28;20311;-64
2022/03/22 15:03:16;;;;;;;3.20;1.85;;;;;;;;;;5052759;28;20247;-64
2022/03/22 15:05:45;;;;;;;0.00;0.00;;;;;;;;;;5047709;28;20260;-64
2022/03/22 15:08:12;;;;;;;0.10;0.10;;;;;;;;;;5052278;28;20193;-62
2022/03/22 15:10:39;;;;;;;5.78;5.45;;;;;;;;;;5048308;28;20299;-63
2022/03/22 15:13:07;;;;;;;0.00;0.00;;;;;;;;;;5051252;28;20446;-63
2022/03/22 15:15:33;;;;;;;0.10;0.10;;;;;;;;;;5048929;28;20305;-65
2022/03/22 15:18:02;;;;;;;7.78;3.53;;;;;;;;;;5050403;28;20530;-65
2022/03/22 15:20:28;;;;;;;0.00;0.00;;;;;;;;;;5049601;28;20264;-66
2022/03/22 15:22:55;;;;;;;0.10;0.10;;;;;;;;;;5049680;28;20277;-64